Time;durP1;ratioP1;P1;durP2;ratioP2;P2;SDS_P1;SDS_P2;PMS_P1;PMS_P2;Temp;Humidity;BMP_temperature;BMP_pressure;BME280_temperature;BME280_humidity;BME280_pressure;Samples;Min_cycle;Max_cycle;Signal;HPM_P1;HPM_P2
2022/10/26 00:01:26;;;;;;;6.53;4.05;;;17.50;85.30;;;;;;10683824;33;20036;-75
2022/10/26 00:07:29;;;;;;;8.73;3.55;;;17.50;85.30;;;;;;10680558;33;20437;-75
2022/10/26 00:13:31;;;;;;;4.95;3.33;;;17.40;85.30;;;;;;10683230;33;20025;-74
2022/10/26 00:19:34;;;;;;;5.15;3.40;;;17.40;85.40;;;;;;10683218;33;20048;-74
2022/10/26 00:25:39;;;;;;;5.07;3.30;;;17.30;85.40;;;;;;10133798;32;25453599;-74
2022/10/26 00:31:41;;;;;;;5.15;3.50;;;17.30;85.40;;;;;;10942785;32;20031;-74
2022/10/26 00:37:43;;;;;;;6.68;4.03;;;17.30;85.50;;;;;;10942853;32;20035;-74
2022/10/26 00:43:45;;;;;;;4.97;3.17;;;17.20;85.50;;;;;;10938167;32;20050;-74
2022/10/26 00:49:51;;;;;;;4.22;3.10;;;17.20;85.60;;;;;;10793556;32;20048;-74
2022/10/26 00:55:54;;;;;;;4.87;3.55;;;17.30;85.50;;;;;;10678089;33;20056;-74
2022/10/26 01:01:56;;;;;;;6.60;4.60;;;17.30;85.40;;;;;;10682118;33;20044;-74
2022/10/26 01:07:58;;;;;;;5.37;4.20;;;17.30;85.50;;;;;;10681951;33;20048;-74
2022/10/26 01:14:08;;;;;;;5.47;3.87;;;17.20;85.60;;;;;;10681660;33;20029;-74
2022/10/26 01:20:17;;;;;;;6.20;3.85;;;17.20;85.50;;;;;;10681482;33;20342;-74
2022/10/26 01:26:25;;;;;;;4.28;3.05;;;17.10;85.70;;;;;;10681265;33;20025;-74
2022/10/26 01:32:34;;;;;;;4.67;3.13;;;17.00;85.60;;;;;;10680958;33;20022;-74
2022/10/26 01:38:38;;;;;;;;;;;17.00;85.60;;;;;;10677349;33;20378;-74
2022/10/26 01:44:52;;;;;;;5.82;3.53;;;17.00;85.50;;;;;;10677039;33;19975;-74
2022/10/26 01:50:56;;;;;;;5.57;3.45;;;17.00;85.70;;;;;;10680741;33;20056;-74
2022/10/26 01:57:02;;;;;;;4.28;3.03;;;16.90;85.60;;;;;;10680481;33;20026;-74
2022/10/26 02:03:26;;;;;;;6.18;3.60;;;16.90;85.70;;;;;;10680467;33;20056;-74
2022/10/26 02:09:48;;;;;;;6.37;3.70;;;16.80;85.70;;;;;;10680262;33;20056;-74
2022/10/26 02:16:04;;;;;;;3.67;2.72;;;16.80;85.70;;;;;;10676005;33;20038;-74
2022/10/26 02:22:36;;;;;;;7.03;4.35;;;16.80;85.70;;;;;;10679752;33;20034;-74
2022/10/26 02:28:43;;;;;;;7.50;5.28;;;16.80;85.80;;;;;;10825338;32;20032;-74
2022/10/26 02:34:48;;;;;;;10.00;3.70;;;16.80;86.20;;;;;;10826728;32;20044;-74
2022/10/26 02:40:51;;;;;;;5.68;3.75;;;16.70;86.50;;;;;;10826150;32;20062;-74
2022/10/26 02:46:54;;;;;;;5.25;3.50;;;16.80;86.70;;;;;;10826826;32;20059;-74
2022/10/26 02:53:49;;;;;;;6.82;4.18;;;16.80;86.60;;;;;;10826855;32;20062;-74
2022/10/26 02:59:52;;;;;;;4.57;3.40;;;16.80;86.30;;;;;;10609291;33;20323;-74
2022/10/26 03:05:54;;;;;;;5.75;3.90;;;16.80;86.30;;;;;;10603702;33;20038;-74
2022/10/26 03:11:56;;;;;;;7.72;4.47;;;16.70;86.30;;;;;;10600204;33;20053;-74
2022/10/26 03:17:58;;;;;;;4.70;3.75;;;16.70;86.40;;;;;;10602913;33;20117;-73
2022/10/26 03:24:00;;;;;;;3.90;2.70;;;16.60;86.20;;;;;;10603038;33;20034;-73
2022/10/26 03:30:02;;;;;;;4.65;2.78;;;16.50;86.30;;;;;;10604204;33;20056;-74
2022/10/26 03:36:05;;;;;;;5.62;3.12;;;16.60;86.30;;;;;;10672148;33;20064;-74
2022/10/26 03:42:07;;;;;;;5.05;3.28;;;16.50;86.30;;;;;;10674153;33;20033;-74
2022/10/26 03:48:09;;;;;;;5.95;3.85;;;16.70;86.20;;;;;;10677995;33;20036;-74
2022/10/26 03:54:11;;;;;;;4.05;2.80;;;16.60;86.20;;;;;;10702806;33;20060;-74
2022/10/26 04:00:15;;;;;;;4.50;3.17;;;16.50;86.20;;;;;;10679802;33;20056;-74
2022/10/26 04:06:17;;;;;;;5.93;4.32;;;16.60;86.20;;;;;;10683753;33;20021;-74
2022/10/26 04:12:19;;;;;;;7.43;3.40;;;16.60;86.00;;;;;;10683517;33;20048;-73
2022/10/26 04:18:21;;;;;;;6.65;3.83;;;16.50;86.00;;;;;;10683451;33;20206;-73
2022/10/26 04:24:23;;;;;;;4.45;3.30;;;16.40;86.00;;;;;;10683291;33;20325;-73
2022/10/26 04:30:25;;;;;;;5.55;3.62;;;16.30;86.20;;;;;;10683176;33;20464;-74
2022/10/26 04:36:53;;;;;;;5.55;3.42;;;16.30;86.20;;;;;;10682956;33;20040;-74
2022/10/26 04:42:55;;;;;;;4.15;3.17;;;16.40;86.10;;;;;;10682758;33;20064;-74
2022/10/26 04:48:58;;;;;;;4.78;3.42;;;16.50;86.20;;;;;;10682575;33;20045;-74
2022/10/26 04:55:00;;;;;;;5.62;2.58;;;16.40;86.10;;;;;;10682364;33;20025;-74
2022/10/26 05:01:03;;;;;;;4.18;2.80;;;16.50;86.10;;;;;;10682160;33;20026;-74
2022/10/26 05:07:04;;;;;;;5.40;3.33;;;16.50;86.10;;;;;;10680335;33;20026;-74
2022/10/26 05:13:08;;;;;;;6.43;4.07;;;16.50;86.30;;;;;;10681917;33;20013;-74
2022/10/26 05:19:12;;;;;;;4.28;3.30;;;16.50;86.40;;;;;;10691204;33;20025;-74
2022/10/26 05:25:43;;;;;;;3.37;2.33;;;16.50;86.30;;;;;;10682574;33;20116;-74
2022/10/26 05:31:49;;;;;;;8.95;2.20;;;16.50;86.20;;;;;;10717497;33;20056;-73
2022/10/26 05:37:52;;;;;;;4.75;3.00;;;16.50;86.20;;;;;;10717101;32;20040;-73
2022/10/26 05:43:54;;;;;;;3.70;2.55;;;16.30;86.20;;;;;;10714545;32;20037;-73
2022/10/26 05:49:56;;;;;;;5.18;3.00;;;16.30;86.40;;;;;;10717061;33;20071;-73
2022/10/26 05:55:58;;;;;;;6.25;2.87;;;16.30;86.30;;;;;;10716632;33;20342;-73
2022/10/26 06:02:28;;;;;;;5.80;2.78;;;16.30;86.30;;;;;;10706333;32;20334;-75
2022/10/26 06:08:31;;;;;;;3.20;2.55;;;16.40;86.50;;;;;;10679888;33;20029;-74
2022/10/26 06:14:34;;;;;;;3.90;2.70;;;16.50;86.40;;;;;;10679062;33;20029;-74
2022/10/26 06:21:19;;;;;;;4.72;2.72;;;16.50;86.50;;;;;;10679019;32;20073;-75
2022/10/26 06:27:27;;;;;;;9.93;3.05;;;16.50;86.50;;;;;;10679683;33;20021;-75
2022/10/26 06:33:30;;;;;;;4.07;3.03;;;16.50;86.60;;;;;;10678835;33;20067;-75
2022/10/26 06:39:36;;;;;;;4.30;3.12;;;16.50;86.60;;;;;;10679499;33;20157;-75
2022/10/26 06:45:44;;;;;;;3.90;2.40;;;16.60;86.50;;;;;;10675077;33;20406;-75
2022/10/26 06:52:03;;;;;;;4.97;3.95;;;16.70;86.50;;;;;;10679198;33;20040;-74
2022/10/26 06:58:11;;;;;;;4.55;3.53;;;16.70;86.50;;;;;;10679134;33;20020;-75
2022/10/26 07:04:37;;;;;;;2.80;1.92;;;16.80;86.40;;;;;;10678913;33;20056;-74
2022/10/26 07:10:41;;;;;;;5.80;3.00;;;16.80;86.40;;;;;;10674811;33;20034;-75
2022/10/26 07:16:43;;;;;;;5.00;3.15;;;16.80;86.40;;;;;;10678817;33;20052;-75
2022/10/26 07:22:53;;;;;;;5.97;3.20;;;17.00;86.50;;;;;;10701868;33;20049;-76
2022/10/26 07:28:56;;;;;;;3.97;2.58;;;16.90;86.60;;;;;;10681454;33;20393;-76
2022/10/26 07:34:58;;;;;;;2.17;1.98;;;16.90;86.60;;;;;;10686038;33;20060;-76
2022/10/26 07:41:03;;;;;;;6.50;3.62;;;17.00;86.50;;;;;;10685384;33;20026;-76
2022/10/26 07:47:05;;;;;;;5.37;3.08;;;17.10;86.40;;;;;;10685647;33;20089;-75
2022/10/26 07:53:07;;;;;;;3.53;2.53;;;17.20;86.30;;;;;;10679943;33;20452;-75
2022/10/26 07:59:12;;;;;;;4.25;2.30;;;17.20;86.30;;;;;;10683697;33;20048;-76
2022/10/26 08:05:14;;;;;;;11.80;4.28;;;17.30;86.10;;;;;;10683879;33;20060;-75
2022/10/26 08:11:17;;;;;;;7.57;5.12;;;17.30;86.00;;;;;;10683645;33;20490;-75
2022/10/26 08:17:20;;;;;;;6.78;3.72;;;17.40;86.00;;;;;;10706279;33;20104;-75
2022/10/26 08:23:22;;;;;;;3.35;2.60;;;17.50;86.00;;;;;;10798388;27;20027;-75
2022/10/26 08:29:24;;;;;;;4.68;3.15;;;17.50;85.90;;;;;;10908857;32;20008;-75
2022/10/26 08:35:27;;;;;;;5.62;2.92;;;17.60;85.70;;;;;;10908994;32;20038;-75
2022/10/26 08:41:43;;;;;;;5.68;3.20;;;17.70;85.60;;;;;;10907454;32;20015;-76
2022/10/26 08:47:48;;;;;;;3.70;2.83;;;17.70;85.50;;;;;;10908929;32;20016;-76
2022/10/26 08:54:03;;;;;;;5.40;3.42;;;17.80;85.40;;;;;;10904163;32;20027;-76
2022/10/26 09:00:06;;;;;;;5.25;3.75;;;17.80;85.30;;;;;;10908031;32;20015;-76
2022/10/26 09:06:12;;;;;;;7.57;4.25;;;17.80;85.10;;;;;;10907934;32;20049;-76
2022/10/26 09:12:22;;;;;;;6.35;3.40;;;18.00;84.90;;;;;;10907616;32;20016;-76
2022/10/26 09:19:10;;;;;;;5.62;3.70;;;18.00;84.70;;;;;;10906456;32;20031;-76
2022/10/26 09:25:22;;;;;;;4.70;2.87;;;18.10;84.50;;;;;;10756062;32;20044;-76
2022/10/26 09:31:24;;;;;;;8.77;3.92;;;18.10;84.30;;;;;;10713352;33;20025;-76
2022/10/26 09:37:35;;;;;;;9.65;3.50;;;18.20;84.20;;;;;;10713318;33;20064;-76
2022/10/26 09:43:48;;;;;;;7.05;4.05;;;18.40;84.00;;;;;;10713140;33;20055;-76
2022/10/26 09:50:00;;;;;;;6.50;4.53;;;18.50;83.70;;;;;;10712420;33;20013;-76
2022/10/26 09:56:23;;;;;;;6.40;5.10;;;18.60;83.60;;;;;;10704629;33;20302;-76
2022/10/26 10:02:42;;;;;;;7.12;4.55;;;18.60;83.60;;;;;;10778960;32;20039;-77
2022/10/26 10:09:09;;;;;;;13.07;4.28;;;18.80;83.40;;;;;;10716346;33;20333;-77
2022/10/26 10:15:24;;;;;;;8.20;5.55;;;18.90;83.10;;;;;;10715861;33;20051;-76
2022/10/26 10:21:38;;;;;;;9.27;4.82;;;18.90;83.10;;;;;;10733434;32;20066;-76
2022/10/26 10:27:53;;;;;;;10.52;6.10;;;18.90;83.20;;;;;;10752274;33;20044;-74
2022/10/26 10:33:55;;;;;;;8.35;5.00;;;19.00;83.00;;;;;;10751968;33;20063;-77
2022/10/26 10:40:05;;;;;;;11.10;6.68;;;19.30;82.80;;;;;;10751707;33;20337;-75
2022/10/26 10:46:26;;;;;;;10.07;6.28;;;19.30;82.50;;;;;;10751397;33;20083;-77
2022/10/26 10:52:31;;;;;;;10.65;5.68;;;19.20;82.60;;;;;;10751514;33;20025;-76
2022/10/26 10:58:56;;;;;;;8.32;5.40;;;19.30;82.50;;;;;;10751012;33;20041;-76
2022/10/26 11:05:08;;;;;;;9.75;5.90;;;19.50;82.30;;;;;;10746501;33;20025;-76
2022/10/26 11:11:26;;;;;;;12.02;6.80;;;19.90;81.60;;;;;;10750563;33;20051;-77
2022/10/26 11:17:34;;;;;;;10.97;6.53;;;20.20;81.10;;;;;;10799946;32;20029;-77
2022/10/26 11:23:56;;;;;;;10.82;4.20;;;20.40;80.70;;;;;;10750853;33;20082;-77
2022/10/26 11:30:13;;;;;;;8.23;5.93;;;20.70;80.20;;;;;;10750854;33;20020;-76
2022/10/26 11:36:38;;;;;;;8.18;5.62;;;20.80;79.90;;;;;;10750318;32;20037;-77
2022/10/26 11:43:05;;;;;;;9.55;5.87;;;20.80;79.80;;;;;;10750248;33;20024;-74
2022/10/26 11:49:09;;;;;;;10.20;6.22;;;20.80;79.30;;;;;;10824399;32;20074;-75
2022/10/26 11:55:11;;;;;;;19.08;7.78;;;20.80;79.20;;;;;;10824578;33;20039;-76
2022/10/26 12:01:15;;;;;;;11.93;7.28;;;20.80;79.10;;;;;;10809188;33;20024;-76
2022/10/26 12:07:27;;;;;;;7.30;4.68;;;20.80;79.10;;;;;;10813186;33;20059;-77
2022/10/26 12:13:41;;;;;;;13.05;6.30;;;20.70;79.10;;;;;;10826156;32;20340;-76
2022/10/26 12:19:52;;;;;;;9.15;5.00;;;20.80;78.90;;;;;;10831453;32;20019;-74
2022/10/26 12:26:23;;;;;;;9.15;5.35;;;20.80;78.80;;;;;;10773830;32;20032;-76
2022/10/26 12:32:31;;;;;;;9.63;5.72;;;20.80;78.70;;;;;;10828728;32;20376;-76
2022/10/26 12:38:36;;;;;;;;;;;20.90;78.70;;;;;;10830345;32;20024;-76
2022/10/26 12:44:59;;;;;;;14.57;7.78;;;20.90;78.80;;;;;;10825816;32;19926;-76
2022/10/26 12:51:47;;;;;;;10.30;6.55;;;20.90;78.70;;;;;;10830784;32;20298;-77
2022/10/26 12:58:26;;;;;;;15.38;8.50;;;20.90;78.30;;;;;;10705735;33;20051;-76
2022/10/26 13:04:36;;;;;;;13.73;7.22;;;20.80;78.40;;;;;;10680566;33;20304;-76
2022/10/26 13:11:17;;;;;;;11.43;7.12;;;20.70;78.40;;;;;;10716115;33;20024;-76
2022/10/26 13:17:31;;;;;;;11.45;7.12;;;20.70;78.60;;;;;;10707811;33;20063;-76
2022/10/26 13:24:00;;;;;;;13.07;7.90;;;20.80;78.30;;;;;;10719174;33;20032;-77
2022/10/26 13:30:03;;;;;;;11.43;7.87;;;21.00;77.80;;;;;;10637102;33;20046;-75
2022/10/26 13:36:40;;;;;;;12.20;7.25;;;20.90;77.70;;;;;;10570795;33;20064;-77
2022/10/26 13:42:46;;;;;;;13.35;8.25;;;21.00;77.60;;;;;;10740829;33;20052;-77
2022/10/26 13:48:50;;;;;;;14.65;9.85;;;21.00;77.60;;;;;;10763137;33;20040;-74
2022/10/26 13:55:00;;;;;;;11.43;7.10;;;21.00;77.50;;;;;;10751750;33;20356;-74
2022/10/26 14:01:08;;;;;;;7.95;6.47;;;21.10;77.50;;;;;;10749224;33;20070;-76
2022/10/26 14:07:21;;;;;;;14.68;6.68;;;21.20;77.50;;;;;;10755314;33;20322;-77
2022/10/26 14:13:28;;;;;;;13.25;7.70;;;21.20;77.50;;;;;;10752425;33;20036;-77
2022/10/26 14:19:37;;;;;;;11.88;6.87;;;21.30;77.40;;;;;;10752228;33;20025;-76
2022/10/26 14:25:39;;;;;;;13.13;7.45;;;21.30;77.20;;;;;;10752084;33;20055;-77
2022/10/26 14:32:18;;;;;;;13.88;7.65;;;21.30;77.20;;;;;;10748007;33;20032;-77
2022/10/26 14:38:34;;;;;;;9.30;5.87;;;21.30;77.20;;;;;;10751816;33;20063;-76
2022/10/26 14:44:37;;;;;;;9.95;6.75;;;21.30;77.30;;;;;;10747735;33;20059;-77
2022/10/26 14:50:40;;;;;;;13.65;7.70;;;21.30;77.40;;;;;;10751552;33;20029;-77
2022/10/26 14:56:43;;;;;;;9.32;6.78;;;21.30;77.50;;;;;;10751468;33;20047;-78
2022/10/26 15:02:47;;;;;;;11.12;6.93;;;21.30;77.60;;;;;;10744121;33;20051;-78
2022/10/26 15:08:54;;;;;;;12.65;6.65;;;21.30;77.70;;;;;;10714890;33;20032;-77
2022/10/26 15:15:16;;;;;;;13.05;6.43;;;21.30;77.60;;;;;;10710433;33;20025;-77
2022/10/26 15:21:24;;;;;;;11.77;7.12;;;21.30;77.70;;;;;;10715340;32;20051;-76
2022/10/26 15:27:26;;;;;;;10.50;6.27;;;21.30;77.90;;;;;;10866551;32;20012;-77
2022/10/26 15:33:29;;;;;;;9.63;6.32;;;21.20;78.20;;;;;;10878054;32;20015;-77
2022/10/26 15:39:32;;;;;;;12.43;6.72;;;21.10;78.50;;;;;;10862029;32;20035;-77
2022/10/26 15:45:41;;;;;;;10.75;5.65;;;21.00;78.70;;;;;;10866145;32;20351;-78
2022/10/26 15:51:45;;;;;;;10.70;5.93;;;20.80;78.90;;;;;;10867088;32;20388;-78
2022/10/26 15:57:54;;;;;;;9.52;6.40;;;20.70;79.20;;;;;;10884523;32;20426;-77
2022/10/26 16:03:56;;;;;;;9.77;5.40;;;20.50;79.50;;;;;;10868733;32;20046;-77
2022/10/26 16:09:58;;;;;;;11.35;6.22;;;20.40;79.80;;;;;;10872612;32;20036;-77
2022/10/26 16:16:01;;;;;;;8.98;6.32;;;20.30;79.90;;;;;;10872524;32;20046;-77
2022/10/26 16:22:03;;;;;;;9.98;6.37;;;20.20;80.10;;;;;;10894150;27;20355;-76
2022/10/26 16:28:05;;;;;;;16.92;7.85;;;20.10;80.30;;;;;;10906055;32;20027;-75
2022/10/26 16:34:07;;;;;;;18.10;9.18;;;20.00;80.40;;;;;;10904789;32;20077;-76
2022/10/26 16:40:10;;;;;;;12.75;6.50;;;19.90;80.50;;;;;;10904562;32;20395;-76
2022/10/26 16:46:20;;;;;;;20.05;8.95;;;19.80;80.80;;;;;;10906115;32;20049;-75
2022/10/26 16:52:22;;;;;;;12.27;7.72;;;19.80;80.90;;;;;;10903389;32;20027;-75
2022/10/26 16:58:24;;;;;;;15.43;8.75;;;19.70;80.90;;;;;;10903080;32;20332;-75
2022/10/26 17:04:26;;;;;;;11.05;7.70;;;19.70;81.00;;;;;;10904528;32;20053;-77
2022/10/26 17:10:29;;;;;;;15.13;7.60;;;19.60;81.00;;;;;;10907678;32;20020;-77
2022/10/26 17:16:33;;;;;;;9.80;6.72;;;19.60;81.10;;;;;;10903576;32;20023;-77
2022/10/26 17:22:35;;;;;;;15.05;8.27;;;19.50;81.30;;;;;;10857219;32;20033;-77
2022/10/26 17:28:38;;;;;;;24.75;7.70;;;19.50;81.20;;;;;;10754453;33;20056;-77
2022/10/26 17:34:42;;;;;;;21.12;7.90;;;19.50;81.30;;;;;;10753706;33;20337;-77
2022/10/26 17:40:45;;;;;;;13.05;8.63;;;19.40;81.40;;;;;;10753600;33;20067;-77
2022/10/26 17:46:48;;;;;;;11.52;8.25;;;19.30;81.50;;;;;;10753101;33;20029;-77
2022/10/26 17:52:51;;;;;;;11.48;8.63;;;19.30;81.50;;;;;;10752939;33;20047;-78
2022/10/26 17:59:02;;;;;;;11.60;7.30;;;19.30;81.60;;;;;;10752051;33;20055;-77
2022/10/26 18:05:04;;;;;;;10.73;7.22;;;19.30;81.70;;;;;;10798653;32;20017;-77
2022/10/26 18:11:17;;;;;;;10.70;7.68;;;19.20;81.80;;;;;;10748222;33;20055;-77
2022/10/26 18:17:18;;;;;;;10.68;7.30;;;19.20;81.80;;;;;;10748328;33;20051;-77
2022/10/26 18:23:20;;;;;;;11.18;6.72;;;19.20;81.90;;;;;;10748046;33;20029;-77
2022/10/26 18:29:23;;;;;;;10.77;7.57;;;19.10;82.00;;;;;;10748253;33;20052;-77
2022/10/26 18:35:26;;;;;;;11.30;7.78;;;19.00;82.20;;;;;;10797693;32;20325;-76
2022/10/26 18:41:28;;;;;;;11.32;8.38;;;19.00;82.30;;;;;;10751499;33;20063;-75
2022/10/26 18:47:31;;;;;;;12.57;7.85;;;18.90;82.20;;;;;;10751208;32;20047;-75
2022/10/26 18:53:35;;;;;;;9.52;6.22;;;18.90;82.30;;;;;;10749582;33;20059;-75
2022/10/26 18:59:37;;;;;;;12.70;7.95;;;18.90;82.30;;;;;;10751076;33;20329;-77
2022/10/26 19:05:40;;;;;;;16.33;9.63;;;18.80;82.30;;;;;;10800997;32;20023;-77
2022/10/26 19:11:42;;;;;;;21.45;12.55;;;18.80;82.50;;;;;;10750943;33;20024;-77
2022/10/26 19:17:44;;;;;;;16.23;12.05;;;18.80;82.60;;;;;;10747936;33;20029;-77
2022/10/26 19:24:16;;;;;;;13.23;9.68;;;18.70;82.60;;;;;;10752003;33;20022;-77
2022/10/26 19:30:18;;;;;;;21.83;15.25;;;18.70;82.70;;;;;;10756916;33;20047;-76
2022/10/26 19:36:22;;;;;;;17.58;13.82;;;18.70;82.70;;;;;;10756790;33;20032;-76
2022/10/26 19:42:24;;;;;;;15.13;12.65;;;18.70;82.70;;;;;;10756563;33;20013;-76
2022/10/26 19:48:27;;;;;;;18.85;13.82;;;18.60;82.80;;;;;;10756334;33;20052;-76
2022/10/26 19:54:44;;;;;;;18.65;14.85;;;18.60;82.80;;;;;;10756182;33;20340;-76
2022/10/26 20:00:46;;;;;;;22.85;15.23;;;18.60;82.80;;;;;;10756131;33;20385;-76
2022/10/26 20:07:14;;;;;;;19.50;15.23;;;18.50;82.90;;;;;;10756218;33;20067;-76
2022/10/26 20:13:16;;;;;;;14.90;12.52;;;18.40;83.10;;;;;;10755945;33;20028;-76
2022/10/26 20:19:18;;;;;;;18.67;10.57;;;18.40;83.30;;;;;;10757209;33;20082;-76
2022/10/26 20:25:20;;;;;;;15.35;11.38;;;18.30;83.20;;;;;;10755492;33;20020;-76
2022/10/26 20:31:22;;;;;;;12.40;10.63;;;18.30;83.30;;;;;;10755162;33;20345;-76
2022/10/26 20:37:39;;;;;;;13.25;9.52;;;18.30;83.30;;;;;;10751699;33;20420;-76
2022/10/26 20:43:42;;;;;;;10.13;7.62;;;18.30;83.30;;;;;;10754935;33;20298;-76
2022/10/26 20:49:44;;;;;;;11.52;8.10;;;18.30;83.40;;;;;;10755007;33;20017;-76
2022/10/26 20:55:58;;;;;;;11.50;7.47;;;18.20;83.50;;;;;;10754027;33;20024;-76
2022/10/26 21:02:00;;;;;;;11.70;8.70;;;18.20;83.60;;;;;;10804810;32;20017;-75
2022/10/26 21:08:02;;;;;;;13.55;8.30;;;18.20;83.60;;;;;;10754366;33;20029;-75
2022/10/26 21:14:05;;;;;;;16.27;10.50;;;18.20;83.80;;;;;;10804762;32;20021;-75
2022/10/26 21:20:08;;;;;;;13.20;9.55;;;18.20;83.90;;;;;;10754128;33;20051;-75
2022/10/26 21:26:10;;;;;;;15.52;9.00;;;18.10;83.80;;;;;;10753983;33;20021;-75
2022/10/26 21:32:12;;;;;;;10.07;6.97;;;18.10;83.80;;;;;;10753789;33;20013;-75
2022/10/26 21:38:14;;;;;;;13.95;9.38;;;18.10;83.90;;;;;;10750237;33;20051;-75
2022/10/26 21:44:16;;;;;;;13.35;9.07;;;18.00;84.10;;;;;;10753576;33;20048;-75
2022/10/26 21:50:18;;;;;;;15.30;8.73;;;18.00;84.10;;;;;;10802890;32;20048;-75
2022/10/26 21:56:23;;;;;;;12.85;8.23;;;18.00;84.30;;;;;;10751973;33;20055;-75
2022/10/26 22:02:25;;;;;;;12.35;9.80;;;18.00;84.30;;;;;;10801012;32;20024;-75
2022/10/26 22:08:27;;;;;;;11.90;8.55;;;17.90;84.40;;;;;;10752767;33;20051;-75
2022/10/26 22:14:29;;;;;;;12.93;9.55;;;17.90;84.40;;;;;;10752650;33;20432;-75
2022/10/26 22:20:31;;;;;;;12.30;7.37;;;17.90;84.30;;;;;;10752468;33;20321;-75
2022/10/26 22:26:41;;;;;;;14.13;9.85;;;17.80;84.40;;;;;;10752195;33;20307;-75
2022/10/26 22:32:43;;;;;;;12.40;7.50;;;17.80;84.40;;;;;;10750473;33;20055;-75
2022/10/26 22:38:45;;;;;;;11.40;8.15;;;17.80;84.40;;;;;;10751227;33;20055;-75
2022/10/26 22:44:52;;;;;;;13.65;8.73;;;17.80;84.40;;;;;;10751636;33;20024;-75
2022/10/26 22:50:55;;;;;;;10.02;6.32;;;17.80;84.50;;;;;;10801731;32;20017;-75
2022/10/26 22:56:58;;;;;;;9.80;7.50;;;17.70;84.60;;;;;;10751392;33;20064;-75
2022/10/26 23:03:00;;;;;;;19.70;11.38;;;17.70;84.60;;;;;;10747553;32;20055;-75
2022/10/26 23:09:02;;;;;;;10.88;7.45;;;17.70;84.70;;;;;;10751348;33;20008;-74
2022/10/26 23:15:04;;;;;;;12.45;9.73;;;17.70;84.60;;;;;;10750960;32;20044;-74
2022/10/26 23:21:08;;;;;;;10.68;5.78;;;17.60;84.70;;;;;;10758725;32;20051;-75
2022/10/26 23:27:10;;;;;;;12.98;8.13;;;17.60;84.60;;;;;;10903928;32;20019;-75
2022/10/26 23:33:15;;;;;;;11.57;7.55;;;17.60;84.70;;;;;;10903782;32;20019;-75
2022/10/26 23:39:17;;;;;;;9.10;5.72;;;17.50;84.60;;;;;;10903772;32;20046;-74
2022/10/26 23:45:20;;;;;;;9.80;6.12;;;17.60;84.60;;;;;;10903667;32;20086;-74
2022/10/26 23:51:22;;;;;;;10.05;6.62;;;17.50;84.60;;;;;;10903542;32;20019;-74
2022/10/26 23:57:24;;;;;;;11.55;7.53;;;17.50;84.60;;;;;;10900434;32;20022;-74
